createdAt,value
2019-04-03T00:01:09.907Z,7.83
2019-04-03T00:03:39.264Z,8.83
2019-04-03T00:06:09.076Z,11.23
2019-04-03T00:08:38.535Z,11.43
2019-04-03T00:11:09.400Z,12.13
2019-04-03T00:13:41.460Z,12.27
2019-04-03T00:16:10.210Z,11.67
2019-04-03T00:18:39.535Z,8.03
2019-04-03T00:21:08.877Z,6.10
2019-04-03T00:23:38.280Z,5.80
2019-04-03T00:26:08.013Z,6.07
2019-04-03T00:28:37.395Z,6.03
2019-04-03T00:31:06.751Z,7.13
2019-04-03T00:33:36.128Z,7.00
2019-04-03T00:36:05.926Z,7.07
2019-04-03T00:38:35.323Z,6.90
2019-04-03T00:41:04.668Z,6.97
2019-04-03T00:43:34.247Z,7.33
2019-04-03T00:46:03.883Z,6.90
2019-04-03T00:48:33.242Z,6.67
2019-04-03T00:51:02.648Z,6.20
2019-04-03T00:53:32.036Z,5.23
2019-04-03T00:56:01.774Z,5.93
2019-04-03T00:58:39.211Z,6.07
2019-04-03T01:01:12.976Z,6.60
2019-04-03T01:03:43.192Z,6.13
2019-04-03T01:06:12.984Z,5.57
2019-04-03T01:08:42.394Z,5.73
2019-04-03T01:11:11.774Z,5.90
2019-04-03T01:13:41.360Z,5.53
2019-04-03T01:16:10.785Z,4.90
2019-04-03T01:18:40.404Z,4.93
2019-04-03T01:21:09.780Z,5.13
2019-04-03T01:23:39.131Z,5.70
2019-04-03T01:26:10.019Z,5.10
2019-04-03T01:28:41.346Z,4.73
2019-04-03T01:31:14.379Z,5.57
2019-04-03T01:33:42.767Z,5.80
2019-04-03T01:36:12.438Z,5.57
2019-04-03T01:38:41.889Z,5.53
2019-04-03T01:41:11.333Z,5.47
2019-04-03T01:43:40.691Z,5.30
2019-04-03T01:46:10.020Z,5.90
2019-04-03T01:48:39.387Z,5.30
2019-04-03T01:51:08.739Z,5.50
2019-04-03T01:53:38.091Z,5.47
2019-04-03T01:56:07.440Z,5.80
2019-04-03T01:58:38.090Z,5.23
2019-04-03T02:01:08.114Z,5.30
2019-04-03T02:03:38.000Z,5.60
2019-04-03T02:06:07.984Z,5.60
2019-04-03T02:08:37.285Z,5.47
2019-04-03T02:11:06.685Z,4.80
2019-04-03T02:13:36.482Z,5.60
2019-04-03T02:16:05.948Z,5.40
2019-04-03T02:18:35.328Z,4.87
2019-04-03T02:21:04.863Z,5.80
2019-04-03T02:23:34.227Z,5.13
2019-04-03T02:26:03.578Z,6.07
2019-04-03T02:28:34.926Z,5.07
2019-04-03T02:31:04.751Z,4.40
2019-04-03T02:33:34.125Z,5.40
2019-04-03T02:36:03.539Z,5.77
2019-04-03T02:38:33.143Z,5.53
2019-04-03T02:41:04.145Z,5.70
2019-04-03T02:43:34.332Z,5.00
2019-04-03T02:46:03.683Z,5.17
2019-04-03T02:48:33.068Z,4.90
2019-04-03T02:51:02.937Z,5.00
2019-04-03T02:53:32.237Z,5.07
2019-04-03T02:56:01.618Z,5.03
2019-04-03T02:58:31.186Z,5.77
2019-04-03T03:01:05.606Z,5.87
2019-04-03T03:03:32.048Z,5.57
2019-04-03T03:06:01.569Z,4.80
2019-04-03T03:08:31.005Z,5.20
2019-04-03T03:11:02.073Z,5.53
2019-04-03T03:13:34.565Z,4.47
2019-04-03T03:16:03.532Z,4.80
2019-04-03T03:18:33.005Z,5.10
2019-04-03T03:21:04.523Z,5.13
2019-04-03T03:23:34.005Z,5.67
2019-04-03T03:26:05.781Z,5.60
2019-04-03T03:28:36.149Z,4.87
2019-04-03T03:31:07.701Z,5.27
2019-04-03T03:33:40.179Z,5.27
2019-04-03T03:36:09.519Z,5.53
2019-04-03T03:38:40.723Z,5.77
2019-04-03T03:41:10.716Z,5.70
2019-04-03T03:43:40.243Z,5.13
2019-04-03T03:46:10.691Z,4.97
2019-04-03T03:48:43.931Z,5.67
2019-04-03T03:51:15.316Z,5.37
2019-04-03T03:53:46.988Z,5.47
2019-04-03T03:56:18.868Z,5.80
2019-04-03T03:58:50.032Z,5.70
2019-04-03T04:01:21.223Z,5.57
2019-04-03T04:03:52.592Z,5.67
2019-04-03T04:06:22.401Z,5.83
2019-04-03T04:08:51.966Z,4.83
2019-04-03T04:11:21.548Z,5.60
2019-04-03T04:13:51.094Z,5.47
2019-04-03T04:16:27.691Z,6.27
2019-04-03T04:18:58.257Z,5.80
2019-04-03T04:21:28.547Z,6.67
2019-04-03T04:23:58.533Z,5.97
2019-04-03T04:26:27.967Z,6.13
2019-04-03T04:28:57.351Z,6.23
2019-04-03T04:31:26.724Z,7.00
2019-04-03T04:33:56.180Z,7.63
2019-04-03T04:36:25.612Z,7.07
2019-04-03T04:38:55.850Z,7.43
2019-04-03T04:41:26.080Z,7.17
2019-04-03T04:43:55.496Z,7.83
2019-04-03T04:46:24.921Z,6.33
2019-04-03T04:48:54.327Z,6.50
2019-04-03T04:51:25.373Z,5.33
2019-04-03T04:53:54.864Z,6.53
2019-04-03T04:56:24.259Z,6.50
2019-04-03T04:58:53.696Z,6.57
2019-04-03T05:01:23.178Z,7.17
2019-04-03T05:03:53.915Z,6.97
2019-04-03T05:06:23.642Z,6.63
2019-04-03T05:08:53.029Z,7.10
2019-04-03T05:11:22.695Z,6.03
2019-04-03T05:13:52.239Z,5.57
2019-04-03T05:16:24.538Z,6.23
2019-04-03T05:18:53.212Z,6.00
2019-04-03T05:21:23.226Z,6.20
2019-04-03T05:23:55.493Z,7.10
2019-04-03T05:26:23.736Z,7.00
2019-04-03T05:28:57.323Z,6.37
2019-04-03T05:31:24.369Z,6.50
2019-04-03T05:33:53.775Z,6.60
2019-04-03T05:36:23.176Z,6.87
2019-04-03T05:38:53.496Z,6.73
2019-04-03T05:41:23.307Z,7.30
2019-04-03T05:43:52.785Z,7.63
2019-04-03T05:46:22.243Z,7.27
2019-04-03T05:48:51.680Z,7.87
2019-04-03T05:51:22.078Z,6.73
2019-04-03T05:53:53.791Z,7.23
2019-04-03T05:56:22.765Z,6.30
2019-04-03T05:58:56.189Z,6.57
2019-04-03T06:01:23.395Z,6.33
2019-04-03T06:03:53.656Z,6.20
2019-04-03T06:06:23.041Z,6.10
2019-04-03T06:08:52.962Z,4.87
2019-04-03T06:11:22.419Z,5.33
2019-04-03T06:13:51.840Z,5.73
2019-04-03T06:16:23.518Z,5.50
2019-04-03T06:18:53.043Z,5.10
2019-04-03T06:21:22.621Z,5.43
2019-04-03T06:23:52.702Z,5.67
2019-04-03T06:26:22.613Z,5.17
2019-04-03T06:28:52.040Z,5.13
2019-04-03T06:31:22.561Z,5.67
2019-04-03T06:33:52.235Z,5.10
2019-04-03T06:36:21.699Z,4.80
2019-04-03T06:38:51.098Z,4.97
2019-04-03T06:41:21.565Z,4.93
2019-04-03T06:43:53.980Z,4.93
2019-04-03T06:46:22.610Z,5.33
2019-04-03T06:48:54.951Z,5.33
2019-04-03T06:51:23.131Z,5.40
2019-04-03T06:53:52.630Z,5.40
2019-04-03T06:56:22.027Z,5.13
2019-04-03T06:58:51.639Z,5.10
2019-04-03T07:01:21.111Z,5.33
2019-04-03T07:03:50.437Z,5.37
2019-04-03T07:06:19.849Z,5.30
2019-04-03T07:08:49.234Z,5.63
2019-04-03T07:11:23.644Z,5.47
2019-04-03T07:13:49.702Z,5.17
2019-04-03T07:16:19.413Z,5.10
2019-04-03T07:18:49.028Z,5.20
2019-04-03T07:21:18.433Z,5.57
2019-04-03T07:23:48.035Z,5.50
2019-04-03T07:26:17.422Z,5.70
2019-04-03T07:28:46.843Z,5.33
2019-04-03T07:31:16.469Z,5.63
2019-04-03T07:33:45.860Z,6.23
2019-04-03T07:36:15.300Z,6.10
2019-04-03T07:38:46.194Z,5.87
2019-04-03T07:41:15.562Z,6.10
2019-04-03T07:43:45.024Z,6.00
2019-04-03T07:46:14.380Z,6.40
2019-04-03T07:48:44.662Z,6.30
2019-04-03T07:51:14.094Z,6.00
2019-04-03T07:53:45.145Z,6.07
2019-04-03T07:56:14.559Z,6.13
2019-04-03T07:58:43.945Z,6.13
2019-04-03T08:01:14.135Z,6.50
2019-04-03T08:03:43.986Z,6.83
2019-04-03T08:06:13.403Z,6.13
2019-04-03T08:08:42.826Z,6.03
2019-04-03T08:11:14.841Z,6.90
2019-04-03T08:13:43.362Z,6.20
2019-04-03T08:16:15.134Z,5.70
2019-04-03T08:18:43.943Z,6.40
2019-04-03T08:21:13.352Z,6.40
2019-04-03T08:23:42.762Z,6.30
2019-04-03T08:26:12.381Z,6.60
2019-04-03T08:28:42.094Z,6.40
2019-04-03T08:31:12.111Z,6.20
2019-04-03T08:33:41.854Z,6.63
2019-04-03T08:36:23.114Z,6.63
2019-04-03T08:38:44.003Z,6.73
2019-04-03T08:41:13.567Z,6.33
2019-04-03T08:43:43.341Z,6.60
2019-04-03T08:46:12.801Z,7.30
2019-04-03T08:48:42.222Z,6.57
2019-04-03T08:51:12.123Z,6.63
2019-04-03T08:53:41.535Z,6.70
2019-04-03T08:56:10.954Z,6.23
2019-04-03T08:58:40.911Z,6.50
2019-04-03T09:01:11.193Z,6.03
2019-04-03T09:03:41.914Z,6.07
2019-04-03T09:06:11.544Z,6.80
2019-04-03T09:08:40.946Z,6.33
2019-04-03T09:11:10.811Z,6.47
2019-04-03T09:13:40.251Z,6.23
2019-04-03T09:16:10.520Z,6.60
2019-04-03T09:18:40.398Z,6.83
2019-04-03T09:21:10.058Z,7.03
2019-04-03T09:23:39.554Z,7.10
2019-04-03T09:26:08.930Z,6.73
2019-04-03T09:28:41.406Z,6.43
2019-04-03T09:31:09.995Z,6.23
2019-04-03T09:33:39.726Z,6.90
2019-04-03T09:36:09.169Z,6.90
2019-04-03T09:38:40.526Z,7.03
2019-04-03T09:41:09.825Z,7.20
2019-04-03T09:43:40.055Z,7.00
2019-04-03T09:46:09.513Z,6.97
2019-04-03T09:48:39.223Z,6.53
2019-04-03T09:51:09.791Z,7.57
2019-04-03T09:53:39.316Z,6.90
2019-04-03T09:56:09.357Z,6.43
2019-04-03T09:58:38.754Z,6.93
2019-04-03T10:01:08.432Z,6.93
2019-04-03T10:03:38.802Z,6.43
2019-04-03T10:06:08.499Z,6.53
2019-04-03T10:08:40.223Z,6.90
2019-04-03T10:11:10.579Z,6.77
2019-04-03T10:13:40.082Z,6.97
2019-04-03T10:16:09.533Z,6.23
2019-04-03T10:18:41.167Z,6.87
2019-04-03T10:21:10.338Z,6.80
2019-04-03T10:23:40.858Z,6.70
2019-04-03T10:26:10.332Z,6.63
2019-04-03T10:28:42.162Z,6.70
2019-04-03T10:31:11.711Z,6.70
2019-04-03T10:33:41.174Z,7.23
2019-04-03T10:36:11.930Z,7.20
2019-04-03T10:38:42.764Z,6.67
2019-04-03T10:41:12.301Z,6.93
2019-04-03T10:43:42.135Z,7.33
2019-04-03T10:46:12.102Z,6.53
2019-04-03T10:48:41.466Z,7.03
2019-04-03T10:51:10.859Z,6.47
2019-04-03T10:53:40.303Z,7.33
2019-04-03T10:56:10.024Z,7.40
2019-04-03T10:58:42.282Z,7.10
2019-04-03T11:01:10.545Z,7.10
2019-04-03T11:03:39.913Z,6.90
2019-04-03T11:06:09.501Z,7.17
2019-04-03T11:08:40.454Z,6.60
2019-04-03T11:11:10.243Z,7.03
2019-04-03T11:13:39.719Z,6.47
2019-04-03T11:16:09.376Z,6.97
2019-04-03T11:18:39.222Z,6.93
2019-04-03T11:21:08.561Z,6.63
2019-04-03T11:23:43.714Z,6.90
2019-04-03T11:26:09.864Z,7.07
2019-04-03T11:28:39.267Z,6.70
2019-04-03T11:31:08.595Z,7.20
2019-04-03T11:33:38.483Z,7.20
2019-04-03T11:36:07.848Z,7.10
2019-04-03T11:38:37.208Z,6.63
2019-04-03T11:41:14.540Z,7.30
2019-04-03T11:43:37.807Z,7.27
2019-04-03T11:46:07.356Z,6.97
2019-04-03T11:48:38.000Z,7.13
2019-04-03T11:51:07.643Z,7.37
2019-04-03T11:53:37.050Z,7.70
2019-04-03T11:56:06.587Z,6.60
2019-04-03T11:58:36.104Z,6.57
2019-04-03T12:01:06.901Z,7.03
2019-04-03T12:03:36.444Z,6.53
2019-04-03T12:06:05.832Z,7.27
2019-04-03T12:08:35.934Z,6.77
2019-04-03T12:11:06.080Z,7.50
2019-04-03T12:13:36.613Z,6.70
2019-04-03T12:16:06.463Z,7.30
2019-04-03T12:18:36.204Z,7.00
2019-04-03T12:21:05.594Z,7.20
2019-04-03T12:23:35.022Z,7.50
2019-04-03T12:26:04.502Z,7.10
2019-04-03T12:28:34.187Z,6.37
2019-04-03T12:31:03.587Z,7.20
2019-04-03T12:33:33.286Z,6.40
2019-04-03T12:36:02.918Z,7.30
2019-04-03T12:38:32.408Z,7.20
2019-04-03T12:41:04.279Z,7.03
2019-04-03T12:43:32.916Z,6.63
2019-04-03T12:46:03.135Z,7.23
2019-04-03T12:48:33.319Z,6.73
2019-04-03T12:51:02.689Z,6.67
2019-04-03T12:53:32.365Z,6.67
2019-04-03T12:56:01.964Z,7.60
2019-04-03T12:58:31.309Z,7.83
2019-04-03T13:01:00.673Z,7.80
2019-04-03T13:03:30.867Z,7.23
2019-04-03T13:06:00.356Z,6.87
2019-04-03T13:08:30.099Z,7.10
2019-04-03T13:10:59.852Z,6.50
2019-04-03T13:13:29.237Z,6.37
2019-04-03T13:15:58.663Z,7.67
2019-04-03T13:18:28.143Z,6.73
2019-04-03T13:20:57.565Z,6.90
2019-04-03T13:23:26.955Z,6.30
2019-04-03T13:25:56.377Z,7.07
2019-04-03T13:28:25.933Z,6.57
2019-04-03T13:30:55.267Z,6.50
2019-04-03T13:33:24.623Z,6.93
2019-04-03T13:35:54.093Z,6.90
2019-04-03T13:38:23.874Z,7.40
2019-04-03T13:40:53.433Z,7.27
2019-04-03T13:43:22.855Z,7.00
2019-04-03T13:45:52.334Z,7.37
2019-04-03T13:48:21.812Z,7.00
2019-04-03T13:50:54.066Z,7.20
2019-04-03T13:53:25.391Z,6.57
2019-04-03T13:55:54.267Z,6.70
2019-04-03T13:58:27.031Z,7.37
2019-04-03T14:01:01.419Z,7.10
2019-04-03T14:03:27.838Z,6.60
2019-04-03T14:05:58.079Z,7.00
2019-04-03T14:08:27.715Z,8.03
2019-04-03T14:10:58.720Z,8.07
2019-04-03T14:13:28.173Z,7.13
2019-04-03T14:15:57.934Z,6.50
2019-04-03T14:18:27.738Z,6.87
2019-04-03T14:20:57.180Z,8.60
2019-04-03T14:23:27.079Z,7.03
2019-04-03T14:26:03.964Z,7.73
2019-04-03T14:28:28.046Z,8.20
2019-04-03T14:30:58.115Z,8.13
2019-04-03T14:33:27.476Z,7.33
2019-04-03T14:35:56.828Z,8.13
2019-04-03T14:38:27.727Z,7.93
2019-04-03T14:40:57.398Z,8.07
2019-04-03T14:43:26.832Z,9.07
2019-04-03T14:45:57.574Z,7.07
2019-04-03T14:48:27.626Z,8.63
2019-04-03T14:50:57.029Z,8.70
2019-04-03T14:53:26.846Z,7.77
2019-04-03T14:55:56.307Z,8.43
2019-04-03T14:58:27.253Z,8.27
2019-04-03T15:00:56.997Z,8.00
2019-04-03T15:03:27.945Z,7.93
2019-04-03T15:05:57.481Z,8.80
2019-04-03T15:08:26.863Z,8.33
2019-04-03T15:10:56.781Z,9.17
2019-04-03T15:13:26.668Z,9.83
2019-04-03T15:15:59.234Z,9.20
2019-04-03T15:18:27.477Z,8.17
2019-04-03T15:20:56.804Z,8.83
2019-04-03T15:23:26.594Z,8.63
2019-04-03T15:25:56.020Z,9.40
2019-04-03T15:28:25.422Z,9.37
2019-04-03T15:30:54.855Z,9.83
2019-04-03T15:33:25.105Z,9.63
2019-04-03T15:35:54.535Z,10.60
2019-04-03T15:38:24.458Z,10.80
2019-04-03T15:40:57.132Z,11.37
2019-04-03T15:43:25.071Z,11.03
2019-04-03T15:45:56.619Z,10.60
2019-04-03T15:48:25.671Z,10.43
2019-04-03T15:50:55.535Z,10.73
2019-04-03T15:53:25.089Z,10.53
2019-04-03T15:55:54.494Z,9.83
2019-04-03T15:58:25.657Z,9.10
2019-04-03T16:00:54.936Z,10.67
2019-04-03T16:03:25.140Z,10.67
2019-04-03T16:05:54.525Z,10.47
2019-04-03T16:08:24.341Z,10.60
2019-04-03T16:10:56.361Z,10.00
2019-04-03T16:13:24.919Z,10.50
2019-04-03T16:15:56.278Z,10.93
2019-04-03T16:18:25.395Z,10.63
2019-04-03T16:20:55.012Z,10.20
2019-04-03T16:23:24.422Z,11.20
2019-04-03T16:25:53.794Z,11.27
2019-04-03T16:28:23.295Z,10.97
2019-04-03T16:30:54.378Z,11.80
2019-04-03T16:33:24.892Z,11.60
2019-04-03T16:35:54.750Z,10.97
2019-04-03T16:38:24.144Z,11.53
2019-04-03T16:40:53.728Z,11.03
2019-04-03T16:43:24.390Z,13.73
2019-04-03T16:45:54.103Z,13.13
2019-04-03T16:48:23.522Z,14.70
2019-04-03T16:50:53.268Z,12.27
2019-04-03T16:53:22.833Z,14.53
2019-04-03T16:55:52.635Z,13.00
2019-04-03T16:58:25.236Z,12.57
2019-04-03T17:00:53.730Z,12.93
2019-04-03T17:03:23.432Z,13.77
2019-04-03T17:05:53.173Z,13.97
2019-04-03T17:08:23.690Z,12.80
2019-04-03T17:10:54.056Z,10.97
2019-04-03T17:13:23.853Z,11.27
2019-04-03T17:15:53.689Z,10.47
2019-04-03T17:18:23.246Z,12.97
2019-04-03T17:20:54.613Z,11.20
2019-04-03T17:23:23.784Z,13.83
2019-04-03T17:25:53.541Z,13.80
2019-04-03T17:28:23.198Z,14.73
2019-04-03T17:30:52.615Z,13.30
2019-04-03T17:33:22.194Z,14.00
2019-04-03T17:35:52.163Z,14.53
2019-04-03T17:38:21.886Z,13.53
2019-04-03T17:40:51.290Z,13.17
2019-04-03T17:43:20.685Z,13.53
2019-04-03T17:45:51.622Z,13.47
2019-04-03T17:48:21.037Z,12.10
2019-04-03T17:50:50.389Z,9.17
2019-04-03T17:53:19.785Z,10.60
2019-04-03T17:55:49.217Z,10.97
2019-04-03T17:58:18.609Z,11.10
2019-04-03T18:00:51.664Z,10.87
2019-04-03T18:03:19.597Z,10.83
2019-04-03T18:05:49.469Z,11.97
2019-04-03T18:08:18.798Z,12.67
2019-04-03T18:10:48.217Z,11.60
2019-04-03T18:13:17.611Z,12.60
2019-04-03T18:15:47.011Z,11.00
2019-04-03T18:18:16.430Z,11.37
2019-04-03T18:20:45.821Z,10.37
2019-04-03T18:23:15.178Z,10.67
2019-04-03T18:25:45.317Z,11.03
2019-04-03T18:28:14.686Z,12.10
2019-04-03T18:30:44.087Z,13.40
2019-04-03T18:33:16.662Z,11.13
2019-04-03T18:35:44.566Z,10.13
2019-04-03T18:38:13.928Z,8.83
2019-04-03T18:40:45.655Z,11.50
2019-04-03T18:43:14.454Z,10.73
2019-04-03T18:45:44.053Z,11.47
2019-04-03T18:48:16.296Z,10.87
2019-04-03T18:50:44.564Z,10.33
2019-04-03T18:53:13.922Z,9.87
2019-04-03T18:55:45.328Z,11.07
2019-04-03T18:58:14.402Z,11.03
2019-04-03T19:00:43.804Z,11.17
2019-04-03T19:03:13.168Z,12.00
2019-04-03T19:05:42.794Z,11.77
2019-04-03T19:08:13.704Z,13.23
2019-04-03T19:10:43.321Z,11.27
2019-04-03T19:13:14.083Z,11.73
2019-04-03T19:15:43.788Z,11.77
2019-04-03T19:18:19.268Z,10.20
2019-04-03T19:20:44.276Z,10.50
2019-04-03T19:23:13.616Z,12.57
2019-04-03T19:25:43.020Z,9.97
2019-04-03T19:28:12.379Z,12.83
2019-04-03T19:30:41.768Z,12.43
2019-04-03T19:33:14.040Z,12.27
2019-04-03T19:35:44.115Z,13.47
2019-04-03T19:38:13.527Z,12.63
2019-04-03T19:40:42.941Z,12.20
2019-04-03T19:43:14.539Z,12.37
2019-04-03T19:45:43.429Z,11.53
2019-04-03T19:48:12.850Z,12.37
2019-04-03T19:50:42.440Z,12.03
2019-04-03T19:53:13.502Z,11.27
2019-04-03T19:55:42.994Z,11.33
2019-04-03T19:58:12.773Z,12.03
2019-04-03T20:00:42.278Z,10.60
2019-04-03T20:03:13.684Z,12.40
2019-04-03T20:05:44.015Z,13.73
2019-04-03T20:08:13.736Z,14.43
2019-04-03T20:10:43.187Z,15.07
2019-04-03T20:13:12.758Z,13.80
2019-04-03T20:15:42.167Z,13.53
2019-04-03T20:18:11.575Z,14.13
2019-04-03T20:20:41.008Z,12.80
2019-04-03T20:23:10.746Z,12.20
2019-04-03T20:25:40.761Z,16.30
2019-04-03T20:28:10.390Z,17.70
2019-04-03T20:30:40.014Z,13.60
2019-04-03T20:33:11.520Z,17.77
2019-04-03T20:35:40.607Z,14.60
2019-04-03T20:38:10.052Z,15.07
2019-04-03T20:40:40.013Z,10.67
2019-04-03T20:43:11.420Z,10.83
2019-04-03T20:45:40.559Z,10.67
2019-04-03T20:48:09.938Z,8.63
2019-04-03T20:50:39.282Z,8.97
2019-04-03T20:53:08.710Z,9.03
2019-04-03T20:55:38.134Z,9.53
2019-04-03T20:58:07.472Z,9.40
2019-04-03T21:00:37.855Z,7.57
2019-04-03T21:03:07.243Z,6.53
2019-04-03T21:05:36.650Z,7.00
2019-04-03T21:08:06.088Z,7.30
2019-04-03T21:10:35.473Z,7.97
2019-04-03T21:13:04.855Z,6.70
2019-04-03T21:15:34.240Z,4.50
2019-04-03T21:18:06.599Z,5.10
2019-04-03T21:20:36.023Z,6.20
2019-04-03T21:23:05.342Z,4.10
2019-04-03T21:25:36.107Z,5.03
2019-04-03T21:28:07.115Z,4.70
2019-04-03T21:30:36.512Z,4.63
2019-04-03T21:33:05.886Z,4.60
2019-04-03T21:35:35.886Z,5.00
2019-04-03T21:38:07.128Z,4.63
2019-04-03T21:40:36.793Z,4.20
2019-04-03T21:43:07.520Z,4.57
2019-04-03T21:45:38.678Z,4.03
2019-04-03T21:48:08.200Z,4.20
2019-04-03T21:50:37.586Z,4.50
2019-04-03T21:53:06.979Z,4.27
2019-04-03T21:55:36.472Z,4.23
2019-04-03T21:58:06.929Z,4.27
2019-04-03T22:01:20.823Z,3.37
2019-04-03T22:03:51.906Z,4.70
2019-04-03T22:06:21.384Z,3.43
2019-04-03T22:08:51.627Z,3.63
2019-04-03T22:11:21.398Z,3.50
2019-04-03T22:13:50.974Z,4.00
2019-04-03T22:16:20.618Z,3.57
2019-04-03T22:18:50.219Z,3.50
2019-04-03T22:21:19.624Z,3.23
2019-04-03T22:23:49.062Z,3.30
2019-04-03T22:26:18.528Z,3.40
2019-04-03T22:28:47.933Z,3.73
2019-04-03T22:31:17.437Z,3.53
2019-04-03T22:33:46.969Z,3.80
2019-04-03T22:36:16.439Z,3.73
2019-04-03T22:38:45.955Z,3.13
2019-04-03T22:41:15.302Z,3.27
2019-04-03T22:43:46.196Z,3.63
2019-04-03T22:46:16.137Z,3.63
2019-04-03T22:48:45.692Z,3.10
2019-04-03T22:51:15.205Z,3.23
2019-04-03T22:53:44.622Z,3.30
2019-04-03T22:56:16.423Z,3.30
2019-04-03T22:58:45.704Z,3.27
2019-04-03T23:01:15.142Z,3.40
2019-04-03T23:03:44.615Z,3.10
2019-04-03T23:06:14.055Z,3.10
2019-04-03T23:08:43.608Z,3.40
2019-04-03T23:11:13.061Z,3.53
2019-04-03T23:13:42.549Z,3.80
2019-04-03T23:16:12.231Z,2.93
2019-04-03T23:18:41.710Z,2.80
2019-04-03T23:21:11.204Z,3.03
2019-04-03T23:23:40.996Z,2.93
2019-04-03T23:26:10.545Z,2.70
2019-04-03T23:28:40.105Z,3.10
2019-04-03T23:31:11.094Z,2.70
2019-04-03T23:33:40.893Z,2.50
2019-04-03T23:36:10.400Z,2.93
2019-04-03T23:38:39.889Z,3.00
2019-04-03T23:41:09.418Z,2.63
2019-04-03T23:43:39.514Z,2.70
2019-04-03T23:46:09.588Z,2.90
2019-04-03T23:48:39.177Z,2.53
2019-04-03T23:51:08.645Z,2.90
2019-04-03T23:53:38.287Z,3.10
2019-04-03T23:56:07.965Z,2.60
2019-04-03T23:58:37.500Z,2.90
